createdAt,value
2023-03-19T00:01:26.536Z,100.00
2023-03-19T00:04:11.470Z,100.00
2023-03-19T00:06:56.877Z,100.00
2023-03-19T00:09:42.410Z,100.00
2023-03-19T00:12:27.672Z,100.00
2023-03-19T00:15:12.769Z,100.00
2023-03-19T00:17:57.943Z,100.00
2023-03-19T00:20:43.717Z,100.00
2023-03-19T00:23:28.787Z,100.00
2023-03-19T00:26:14.224Z,100.00
2023-03-19T00:29:00.099Z,100.00
2023-03-19T00:31:45.656Z,100.00
2023-03-19T00:34:30.442Z,100.00
2023-03-19T00:37:15.782Z,100.00
2023-03-19T00:40:01.770Z,100.00
2023-03-19T00:42:47.070Z,100.00
2023-03-19T00:45:32.862Z,100.00
2023-03-19T00:48:18.717Z,100.00
2023-03-19T00:51:06.395Z,100.00
2023-03-19T00:53:52.094Z,100.00
2023-03-19T00:56:37.348Z,100.00
2023-03-19T00:59:22.594Z,100.00
2023-03-19T01:02:07.990Z,100.00
2023-03-19T01:04:53.466Z,100.00
2023-03-19T01:07:38.794Z,100.00
2023-03-19T01:10:24.939Z,100.00
2023-03-19T01:13:10.741Z,100.00
2023-03-19T01:15:55.796Z,100.00
2023-03-19T01:18:41.384Z,100.00
2023-03-19T01:21:26.800Z,100.00
2023-03-19T01:24:13.126Z,100.00
2023-03-19T01:26:58.327Z,100.00
2023-03-19T01:29:43.580Z,100.00
2023-03-19T01:32:28.477Z,100.00
2023-03-19T01:35:13.430Z,100.00
2023-03-19T01:37:58.888Z,100.00
2023-03-19T01:40:48.276Z,100.00
2023-03-19T01:43:33.737Z,100.00
2023-03-19T01:46:32.296Z,100.00
2023-03-19T01:49:19.685Z,100.00
2023-03-19T01:52:06.813Z,100.00
2023-03-19T01:54:54.276Z,100.00
2023-03-19T01:57:39.542Z,100.00
2023-03-19T02:00:24.420Z,100.00
2023-03-19T02:03:09.728Z,100.00
2023-03-19T02:05:56.348Z,100.00
2023-03-19T02:08:41.586Z,100.00
2023-03-19T02:11:27.211Z,100.00
2023-03-19T02:14:13.077Z,100.00
2023-03-19T02:16:59.088Z,100.00
2023-03-19T02:19:54.845Z,100.00
2023-03-19T02:22:50.111Z,100.00
2023-03-19T02:25:45.852Z,100.00
2023-03-19T02:28:33.159Z,100.00
2023-03-19T02:31:18.526Z,100.00
2023-03-19T02:34:27.540Z,100.00
2023-03-19T02:37:19.470Z,100.00
2023-03-19T02:40:10.137Z,100.00
2023-03-19T02:42:55.615Z,100.00
2023-03-19T02:45:41.103Z,100.00
2023-03-19T02:48:28.534Z,100.00
2023-03-19T02:51:13.663Z,100.00
2023-03-19T02:53:59.067Z,100.00
2023-03-19T02:56:44.376Z,100.00
2023-03-19T02:59:29.560Z,100.00
2023-03-19T03:02:14.737Z,100.00
2023-03-19T03:05:01.376Z,100.00
2023-03-19T03:07:46.668Z,100.00
2023-03-19T03:10:33.214Z,100.00
2023-03-19T03:13:18.460Z,100.00
2023-03-19T03:16:04.136Z,100.00
2023-03-19T03:18:49.188Z,100.00
2023-03-19T03:21:35.684Z,100.00
2023-03-19T03:24:20.690Z,100.00
2023-03-19T03:27:05.733Z,100.00
2023-03-19T03:29:50.845Z,100.00
2023-03-19T03:32:36.993Z,100.00
2023-03-19T03:35:22.796Z,100.00
2023-03-19T03:38:08.286Z,100.00
2023-03-19T03:40:53.872Z,100.00
2023-03-19T03:43:39.166Z,100.00
2023-03-19T03:46:24.271Z,100.00
2023-03-19T03:49:09.660Z,100.00
2023-03-19T03:51:54.814Z,100.00
2023-03-19T03:54:40.202Z,100.00
2023-03-19T03:57:26.182Z,100.00
2023-03-19T04:00:11.851Z,100.00
2023-03-19T04:02:56.912Z,100.00
2023-03-19T04:05:43.965Z,100.00
2023-03-19T04:08:28.998Z,100.00
2023-03-19T04:11:14.823Z,100.00
2023-03-19T04:14:00.103Z,100.00
2023-03-19T04:16:45.645Z,100.00
2023-03-19T04:19:32.051Z,100.00
2023-03-19T04:22:16.928Z,100.00
2023-03-19T04:25:01.841Z,100.00
2023-03-19T04:27:46.997Z,100.00
2023-03-19T04:30:34.743Z,100.00
2023-03-19T04:33:20.250Z,100.00
2023-03-19T04:36:06.032Z,100.00
2023-03-19T04:38:51.462Z,100.00
2023-03-19T04:41:36.809Z,100.00
2023-03-19T04:44:22.149Z,100.00
2023-03-19T04:47:07.384Z,100.00
2023-03-19T04:49:52.701Z,100.00
2023-03-19T04:52:38.495Z,100.00
2023-03-19T04:55:23.676Z,100.00
2023-03-19T04:58:08.626Z,100.00
2023-03-19T05:00:53.698Z,100.00
2023-03-19T05:03:38.631Z,100.00
2023-03-19T05:06:23.557Z,100.00
2023-03-19T05:09:08.560Z,100.00
2023-03-19T05:11:54.034Z,100.00
2023-03-19T05:14:38.887Z,100.00
2023-03-19T05:17:24.384Z,100.00
2023-03-19T05:20:10.566Z,100.00
2023-03-19T05:22:55.927Z,100.00
2023-03-19T05:25:41.649Z,100.00
2023-03-19T05:28:27.751Z,100.00
2023-03-19T05:31:12.840Z,100.00
2023-03-19T05:33:58.099Z,100.00
2023-03-19T05:36:42.974Z,100.00
2023-03-19T05:39:27.959Z,100.00
2023-03-19T05:42:13.000Z,100.00
2023-03-19T05:44:58.217Z,100.00
2023-03-19T05:47:43.864Z,100.00
2023-03-19T05:50:29.019Z,100.00
2023-03-19T05:53:14.075Z,100.00
2023-03-19T05:55:59.235Z,100.00
2023-03-19T05:58:44.570Z,100.00
2023-03-19T06:01:29.633Z,100.00
2023-03-19T06:04:14.824Z,100.00
2023-03-19T06:06:59.637Z,100.00
2023-03-19T06:09:44.769Z,100.00
2023-03-19T06:12:30.048Z,100.00
2023-03-19T06:15:14.915Z,100.00
2023-03-19T06:17:59.884Z,100.00
2023-03-19T06:20:47.183Z,100.00
2023-03-19T06:23:32.158Z,100.00
2023-03-19T06:26:16.948Z,100.00
2023-03-19T06:29:01.962Z,100.00
2023-03-19T06:31:47.410Z,100.00
2023-03-19T06:34:32.840Z,100.00
2023-03-19T06:37:18.243Z,100.00
2023-03-19T06:40:03.818Z,100.00
2023-03-19T06:42:49.163Z,100.00
2023-03-19T06:45:34.189Z,100.00
2023-03-19T06:48:19.434Z,100.00
2023-03-19T06:51:06.547Z,100.00
2023-03-19T06:53:51.523Z,100.00
2023-03-19T06:56:37.001Z,100.00
2023-03-19T06:59:22.294Z,100.00
2023-03-19T07:02:11.391Z,100.00
2023-03-19T07:04:56.516Z,100.00
2023-03-19T07:07:41.792Z,100.00
2023-03-19T07:10:27.313Z,100.00
2023-03-19T07:13:12.798Z,100.00
2023-03-19T07:15:57.845Z,100.00
2023-03-19T07:18:42.975Z,100.00
2023-03-19T07:21:28.150Z,100.00
2023-03-19T07:24:13.099Z,100.00
2023-03-19T07:26:58.294Z,100.00
2023-03-19T07:29:43.243Z,100.00
2023-03-19T07:32:28.275Z,100.00
2023-03-19T07:35:13.625Z,100.00
2023-03-19T07:37:58.525Z,100.00
2023-03-19T07:40:55.082Z,100.00
2023-03-19T07:43:46.633Z,100.00
2023-03-19T07:46:32.143Z,100.00
2023-03-19T07:49:16.954Z,100.00
2023-03-19T07:52:01.885Z,100.00
2023-03-19T07:54:46.897Z,100.00
2023-03-19T07:57:32.211Z,100.00
2023-03-19T08:00:18.089Z,100.00
2023-03-19T08:03:03.340Z,100.00
2023-03-19T08:05:49.385Z,100.00
2023-03-19T08:08:34.487Z,98.17
2023-03-19T08:11:19.450Z,94.52
2023-03-19T08:14:04.929Z,93.09
2023-03-19T08:16:50.405Z,92.30
2023-03-19T08:19:35.287Z,91.09
2023-03-19T08:22:23.073Z,91.12
2023-03-19T08:25:08.706Z,90.02
2023-03-19T08:27:53.788Z,88.43
2023-03-19T08:30:39.674Z,87.48
2023-03-19T08:33:24.987Z,86.87
2023-03-19T08:36:12.720Z,87.11
2023-03-19T08:38:58.017Z,88.17
2023-03-19T08:41:43.161Z,87.96
2023-03-19T08:44:28.149Z,87.53
2023-03-19T08:47:13.240Z,87.62
2023-03-19T08:49:58.123Z,87.55
2023-03-19T08:52:43.118Z,87.96
2023-03-19T08:55:28.946Z,87.50
2023-03-19T08:58:14.459Z,85.83
2023-03-19T09:01:07.217Z,82.55
2023-03-19T09:03:52.443Z,81.49
2023-03-19T09:06:38.352Z,81.59
2023-03-19T09:09:24.404Z,82.75
2023-03-19T09:12:11.653Z,83.36
2023-03-19T09:14:56.777Z,84.05
2023-03-19T09:17:41.853Z,84.63
2023-03-19T09:20:27.320Z,86.35
2023-03-19T09:23:12.961Z,86.58
2023-03-19T09:25:58.165Z,86.91
2023-03-19T09:28:43.594Z,87.36
2023-03-19T09:31:29.841Z,89.08
2023-03-19T09:34:15.349Z,89.13
2023-03-19T09:37:00.902Z,88.67
2023-03-19T09:39:46.185Z,89.07
2023-03-19T09:42:42.304Z,89.26
2023-03-19T09:45:28.439Z,90.17
2023-03-19T09:48:20.007Z,90.00
2023-03-19T09:51:08.952Z,91.04
2023-03-19T09:53:59.771Z,90.29
2023-03-19T09:56:45.137Z,90.25
2023-03-19T09:59:30.073Z,89.79
2023-03-19T10:02:43.551Z,89.51
2023-03-19T10:05:54.072Z,88.47
2023-03-19T10:08:51.586Z,88.52
2023-03-19T10:11:51.292Z,89.10
2023-03-19T10:15:10.086Z,88.09
2023-03-19T10:18:00.991Z,87.09
2023-03-19T10:20:55.817Z,87.63
2023-03-19T10:24:26.811Z,87.92
2023-03-19T10:27:22.556Z,88.17
2023-03-19T10:30:19.381Z,87.84
2023-03-19T10:33:21.867Z,87.45
2023-03-19T10:36:11.069Z,87.19
2023-03-19T10:38:56.671Z,88.42
2023-03-19T10:41:58.138Z,87.05
2023-03-19T10:44:53.933Z,85.62
2023-03-19T10:47:40.556Z,85.19
2023-03-19T10:50:28.762Z,85.56
2023-03-19T10:53:14.045Z,85.46
2023-03-19T10:56:04.691Z,84.56
2023-03-19T10:58:57.586Z,84.49
2023-03-19T11:01:43.016Z,84.04
2023-03-19T11:04:28.456Z,85.96
2023-03-19T11:07:19.450Z,87.61
2023-03-19T11:10:05.985Z,86.25
2023-03-19T11:12:55.443Z,86.14
2023-03-19T11:15:41.212Z,84.72
2023-03-19T11:18:31.594Z,84.33
2023-03-19T11:21:28.550Z,82.98
2023-03-19T11:24:16.924Z,82.22
2023-03-19T11:27:02.311Z,80.32
2023-03-19T11:29:47.315Z,79.95
2023-03-19T11:33:14.907Z,80.08
2023-03-19T11:36:22.810Z,81.35
2023-03-19T11:39:29.833Z,81.67
2023-03-19T11:42:40.676Z,82.18
2023-03-19T11:45:41.978Z,82.60
2023-03-19T11:49:05.431Z,82.27
2023-03-19T11:51:53.591Z,83.19
2023-03-19T11:55:08.081Z,83.27
2023-03-19T11:58:29.771Z,83.64
2023-03-19T12:01:44.385Z,83.98
2023-03-19T12:04:39.044Z,83.84
2023-03-19T12:07:27.402Z,83.66
2023-03-19T12:10:52.820Z,85.56
2023-03-19T12:14:13.549Z,85.59
2023-03-19T12:17:06.006Z,85.03
2023-03-19T12:20:12.215Z,85.54
2023-03-19T12:23:13.873Z,84.90
2023-03-19T12:26:06.409Z,83.92
2023-03-19T12:29:04.677Z,85.11
2023-03-19T12:31:59.317Z,85.99
2023-03-19T12:34:57.717Z,85.69
2023-03-19T12:37:59.728Z,85.14
2023-03-19T12:41:03.098Z,83.73
2023-03-19T12:44:13.182Z,82.42
2023-03-19T12:47:07.398Z,81.85
2023-03-19T12:50:06.962Z,80.16
2023-03-19T12:52:56.539Z,76.35
2023-03-19T12:55:50.276Z,73.04
2023-03-19T12:59:02.145Z,70.87
2023-03-19T13:01:51.730Z,69.75
2023-03-19T13:04:47.073Z,68.14
2023-03-19T13:07:44.884Z,66.91
2023-03-19T13:10:31.106Z,67.89
2023-03-19T13:13:36.380Z,67.53
2023-03-19T13:16:57.606Z,66.67
2023-03-19T13:19:49.801Z,64.86
2023-03-19T13:22:38.642Z,63.41
2023-03-19T13:25:31.485Z,63.44
2023-03-19T13:28:27.242Z,63.95
2023-03-19T13:31:21.942Z,66.64
2023-03-19T13:34:27.193Z,70.60
2023-03-19T13:37:19.284Z,70.72
2023-03-19T13:40:05.568Z,70.60
2023-03-19T13:42:56.720Z,71.10
2023-03-19T13:45:42.720Z,71.89
2023-03-19T13:48:27.688Z,70.53
2023-03-19T13:51:17.818Z,70.40
2023-03-19T13:54:12.124Z,71.22
2023-03-19T13:57:00.545Z,72.41
2023-03-19T13:59:48.479Z,73.47
2023-03-19T14:02:33.535Z,74.30
2023-03-19T14:05:20.206Z,75.62
2023-03-19T14:08:20.240Z,75.82
2023-03-19T14:11:05.742Z,75.04
2023-03-19T14:13:52.914Z,75.65
2023-03-19T14:16:43.695Z,75.31
2023-03-19T14:19:28.905Z,74.78
2023-03-19T14:22:17.082Z,73.99
2023-03-19T14:25:12.937Z,72.37
2023-03-19T14:28:09.117Z,71.47
2023-03-19T14:30:55.814Z,68.20
2023-03-19T14:33:50.658Z,67.04
2023-03-19T14:36:40.830Z,65.95
2023-03-19T14:39:29.004Z,65.98
2023-03-19T14:42:24.347Z,66.58
2023-03-19T14:45:13.898Z,68.66
2023-03-19T14:48:02.489Z,71.51
2023-03-19T14:51:11.873Z,71.60
2023-03-19T14:54:23.363Z,72.07
2023-03-19T14:57:26.253Z,72.28
2023-03-19T15:00:17.711Z,73.17
2023-03-19T15:03:02.997Z,73.36
2023-03-19T15:05:50.269Z,73.66
2023-03-19T15:08:38.273Z,73.93
2023-03-19T15:11:29.035Z,74.46
2023-03-19T15:15:08.869Z,75.09
2023-03-19T15:18:07.405Z,74.98
2023-03-19T15:20:55.219Z,75.61
2023-03-19T15:23:41.658Z,76.48
2023-03-19T15:26:37.318Z,77.68
2023-03-19T15:29:33.437Z,78.99
2023-03-19T15:32:52.089Z,79.51
2023-03-19T15:35:40.594Z,79.74
2023-03-19T15:38:31.132Z,79.83
2023-03-19T15:41:18.118Z,80.52
2023-03-19T15:44:09.755Z,80.99
2023-03-19T15:46:57.795Z,81.66
2023-03-19T15:49:51.188Z,81.55
2023-03-19T15:52:41.385Z,81.44
2023-03-19T15:55:27.006Z,81.87
2023-03-19T15:58:16.722Z,83.30
2023-03-19T16:01:01.945Z,84.67
2023-03-19T16:04:08.681Z,83.33
2023-03-19T16:06:54.012Z,83.31
2023-03-19T16:09:39.332Z,83.62
2023-03-19T16:12:48.930Z,83.41
2023-03-19T16:15:43.447Z,83.25
2023-03-19T16:18:30.175Z,83.63
2023-03-19T16:21:23.354Z,83.88
2023-03-19T16:24:08.562Z,84.07
2023-03-19T16:26:54.288Z,84.44
2023-03-19T16:29:44.912Z,84.57
2023-03-19T16:32:32.013Z,84.08
2023-03-19T16:35:17.999Z,84.34
2023-03-19T16:38:26.493Z,84.13
2023-03-19T16:41:22.891Z,84.67
2023-03-19T16:44:15.804Z,86.04
2023-03-19T16:47:01.097Z,86.64
2023-03-19T16:49:46.950Z,86.67
2023-03-19T16:52:32.603Z,86.46
2023-03-19T16:55:27.046Z,86.46
2023-03-19T16:58:18.536Z,85.91
2023-03-19T17:01:12.146Z,85.36
2023-03-19T17:03:57.259Z,86.04
2023-03-19T17:06:43.588Z,86.07
2023-03-19T17:09:28.789Z,86.38
2023-03-19T17:12:16.143Z,86.48
2023-03-19T17:15:01.589Z,86.19
2023-03-19T17:17:47.145Z,85.59
2023-03-19T17:20:36.417Z,85.37
2023-03-19T17:23:21.480Z,85.20
2023-03-19T17:26:16.613Z,87.10
2023-03-19T17:29:01.706Z,86.95
2023-03-19T17:31:47.520Z,86.33
2023-03-19T17:34:32.611Z,86.57
2023-03-19T17:37:18.089Z,89.18
2023-03-19T17:40:14.998Z,90.52
2023-03-19T17:43:00.313Z,91.68
2023-03-19T17:45:45.854Z,92.90
2023-03-19T17:48:31.201Z,93.53
2023-03-19T17:51:18.941Z,93.07
2023-03-19T17:54:10.383Z,91.16
2023-03-19T17:56:55.986Z,90.21
2023-03-19T17:59:41.396Z,90.00
2023-03-19T18:02:30.448Z,90.08
2023-03-19T18:05:23.931Z,89.82
2023-03-19T18:08:17.672Z,89.46
2023-03-19T18:11:02.824Z,89.20
2023-03-19T18:13:48.142Z,89.58
2023-03-19T18:16:33.601Z,89.52
2023-03-19T18:19:37.575Z,90.12
2023-03-19T18:22:22.548Z,90.16
2023-03-19T18:25:19.736Z,90.90
2023-03-19T18:28:05.504Z,91.39
2023-03-19T18:30:50.948Z,91.88
2023-03-19T18:33:36.261Z,91.58
2023-03-19T18:36:24.750Z,91.79
2023-03-19T18:39:14.646Z,91.72
2023-03-19T18:41:59.786Z,91.82
2023-03-19T18:44:45.016Z,91.90
2023-03-19T18:47:30.474Z,91.55
2023-03-19T18:50:21.998Z,91.52
2023-03-19T18:53:10.957Z,91.28
2023-03-19T18:55:56.436Z,91.04
2023-03-19T18:58:41.677Z,90.78
2023-03-19T19:01:27.222Z,90.90
2023-03-19T19:04:16.006Z,90.58
2023-03-19T19:07:00.914Z,90.46
2023-03-19T19:09:45.831Z,89.80
2023-03-19T19:12:31.349Z,89.60
2023-03-19T19:15:36.372Z,89.33
2023-03-19T19:18:27.205Z,89.14
2023-03-19T19:21:12.650Z,88.87
2023-03-19T19:23:57.780Z,89.18
2023-03-19T19:26:45.857Z,89.39
2023-03-19T19:29:30.967Z,89.80
2023-03-19T19:32:23.305Z,90.11
2023-03-19T19:35:22.943Z,91.00
2023-03-19T19:38:14.865Z,91.61
2023-03-19T19:41:00.572Z,91.91
2023-03-19T19:43:46.592Z,91.90
2023-03-19T19:46:32.173Z,91.51
2023-03-19T19:49:19.561Z,91.94
2023-03-19T19:52:10.687Z,92.10
2023-03-19T19:54:56.278Z,92.65
2023-03-19T19:57:43.271Z,92.70
2023-03-19T20:00:30.342Z,92.63
2023-03-19T20:03:24.387Z,93.05
2023-03-19T20:06:10.409Z,93.36
2023-03-19T20:08:55.405Z,93.51
2023-03-19T20:11:40.439Z,93.52
2023-03-19T20:14:25.894Z,93.80
2023-03-19T20:17:15.872Z,94.98
2023-03-19T20:20:01.407Z,96.29
2023-03-19T20:22:46.865Z,97.32
2023-03-19T20:25:32.300Z,98.74
2023-03-19T20:28:30.181Z,99.80
2023-03-19T20:31:27.669Z,100.00
2023-03-19T20:34:22.496Z,100.00
2023-03-19T20:37:10.901Z,100.00
2023-03-19T20:39:56.524Z,100.00
2023-03-19T20:42:45.944Z,100.00
2023-03-19T20:45:35.137Z,100.00
2023-03-19T20:48:20.753Z,100.00
2023-03-19T20:51:06.271Z,100.00
2023-03-19T20:53:52.189Z,100.00
2023-03-19T20:56:38.493Z,100.00
2023-03-19T20:59:25.703Z,100.00
2023-03-19T21:02:16.298Z,99.90
2023-03-19T21:05:01.489Z,99.72
2023-03-19T21:07:49.024Z,99.30
2023-03-19T21:10:39.447Z,98.79
2023-03-19T21:13:24.745Z,98.81
2023-03-19T21:16:16.683Z,98.82
2023-03-19T21:19:02.115Z,98.94
2023-03-19T21:21:47.506Z,99.62
2023-03-19T21:24:32.961Z,99.94
2023-03-19T21:27:25.604Z,100.00
2023-03-19T21:30:16.344Z,100.00
2023-03-19T21:33:01.904Z,100.00
2023-03-19T21:35:47.169Z,100.00
2023-03-19T21:38:32.574Z,100.00
2023-03-19T21:41:22.393Z,100.00
2023-03-19T21:44:13.043Z,100.00
2023-03-19T21:46:58.427Z,100.00
2023-03-19T21:49:43.917Z,100.00
2023-03-19T21:52:29.273Z,100.00
2023-03-19T21:55:16.270Z,100.00
2023-03-19T21:58:01.592Z,100.00
2023-03-19T22:00:46.772Z,100.00
2023-03-19T22:03:32.113Z,100.00
2023-03-19T22:06:17.422Z,100.00
2023-03-19T22:09:03.951Z,100.00
2023-03-19T22:11:49.257Z,100.00
2023-03-19T22:14:34.759Z,100.00
2023-03-19T22:17:23.878Z,100.00
2023-03-19T22:20:18.375Z,100.00
2023-03-19T22:23:03.924Z,100.00
2023-03-19T22:25:51.132Z,100.00
2023-03-19T22:28:36.618Z,100.00
2023-03-19T22:31:22.158Z,100.00
2023-03-19T22:34:14.686Z,100.00
2023-03-19T22:36:59.855Z,100.00
2023-03-19T22:39:45.577Z,100.00
2023-03-19T22:42:30.922Z,100.00
2023-03-19T22:45:22.549Z,100.00
2023-03-19T22:48:13.696Z,100.00
2023-03-19T22:50:58.858Z,100.00
2023-03-19T22:53:44.678Z,100.00
2023-03-19T22:56:29.769Z,100.00
2023-03-19T22:59:15.184Z,100.00
2023-03-19T23:02:00.440Z,100.00
2023-03-19T23:04:45.862Z,100.00
2023-03-19T23:07:31.248Z,100.00
2023-03-19T23:10:20.617Z,100.00
2023-03-19T23:13:06.122Z,100.00
2023-03-19T23:15:57.167Z,100.00
2023-03-19T23:18:42.576Z,100.00
2023-03-19T23:21:27.635Z,100.00
2023-03-19T23:24:12.911Z,100.00
2023-03-19T23:27:00.613Z,100.00
2023-03-19T23:29:45.740Z,100.00
2023-03-19T23:32:31.073Z,100.00
2023-03-19T23:35:18.671Z,100.00
2023-03-19T23:38:04.166Z,100.00
2023-03-19T23:40:51.561Z,100.00
2023-03-19T23:43:36.805Z,100.00
2023-03-19T23:46:22.215Z,100.00
2023-03-19T23:49:15.065Z,100.00
2023-03-19T23:52:00.646Z,100.00
2023-03-19T23:54:46.093Z,100.00
2023-03-19T23:57:31.452Z,100.00
